sensor_id;sensor_type;location;lat;lon;timestamp;P1;durP1;ratioP1;P2;durP2;ratioP2
5912;SDS011;2982;42.684;23.356;2023-02-28T00:02:14;17.60;;;12.57;;
5912;SDS011;2982;42.684;23.356;2023-02-28T00:04:39;21.90;;;13.83;;
5912;SDS011;2982;42.684;23.356;2023-02-28T00:07:04;18.30;;;12.63;;
5912;SDS011;2982;42.684;23.356;2023-02-28T00:09:30;23.80;;;12.48;;
5912;SDS011;2982;42.684;23.356;2023-02-28T00:11:55;17.90;;;13.50;;
5912;SDS011;2982;42.684;23.356;2023-02-28T00:14:20;18.47;;;13.00;;
5912;SDS011;2982;42.684;23.356;2023-02-28T00:16:45;22.53;;;13.33;;
5912;SDS011;2982;42.684;23.356;2023-02-28T00:19:11;16.13;;;11.80;;
5912;SDS011;2982;42.684;23.356;2023-02-28T00:21:36;22.37;;;12.70;;
5912;SDS011;2982;42.684;23.356;2023-02-28T00:24:01;18.67;;;13.30;;
5912;SDS011;2982;42.684;23.356;2023-02-28T00:26:27;21.50;;;13.10;;
5912;SDS011;2982;42.684;23.356;2023-02-28T00:28:52;18.17;;;12.37;;
5912;SDS011;2982;42.684;23.356;2023-02-28T00:31:17;17.60;;;13.03;;
5912;SDS011;2982;42.684;23.356;2023-02-28T00:33:42;19.47;;;12.73;;
5912;SDS011;2982;42.684;23.356;2023-02-28T00:36:09;19.37;;;12.93;;
5912;SDS011;2982;42.684;23.356;2023-02-28T00:38:36;18.73;;;12.93;;
5912;SDS011;2982;42.684;23.356;2023-02-28T00:41:02;18.60;;;13.83;;
5912;SDS011;2982;42.684;23.356;2023-02-28T00:43:27;20.63;;;13.18;;
5912;SDS011;2982;42.684;23.356;2023-02-28T00:45:52;21.90;;;13.63;;
5912;SDS011;2982;42.684;23.356;2023-02-28T00:48:18;25.15;;;15.65;;
5912;SDS011;2982;42.684;23.356;2023-02-28T00:50:43;28.10;;;17.23;;
5912;SDS011;2982;42.684;23.356;2023-02-28T00:53:08;26.63;;;16.63;;
5912;SDS011;2982;42.684;23.356;2023-02-28T00:55:33;25.20;;;16.40;;
5912;SDS011;2982;42.684;23.356;2023-02-28T00:57:59;24.63;;;15.80;;
5912;SDS011;2982;42.684;23.356;2023-02-28T01:00:24;28.37;;;17.83;;
5912;SDS011;2982;42.684;23.356;2023-02-28T01:02:49;23.00;;;15.60;;
5912;SDS011;2982;42.684;23.356;2023-02-28T01:05:15;30.03;;;17.80;;
5912;SDS011;2982;42.684;23.356;2023-02-28T01:07:40;25.53;;;17.23;;
5912;SDS011;2982;42.684;23.356;2023-02-28T01:10:05;26.77;;;16.17;;
5912;SDS011;2982;42.684;23.356;2023-02-28T01:12:31;28.40;;;16.30;;
5912;SDS011;2982;42.684;23.356;2023-02-28T01:14:56;23.63;;;16.23;;
5912;SDS011;2982;42.684;23.356;2023-02-28T01:17:22;22.33;;;14.87;;
5912;SDS011;2982;42.684;23.356;2023-02-28T01:19:47;23.60;;;14.47;;
5912;SDS011;2982;42.684;23.356;2023-02-28T01:22:12;21.47;;;14.90;;
5912;SDS011;2982;42.684;23.356;2023-02-28T01:24:37;25.07;;;16.50;;
5912;SDS011;2982;42.684;23.356;2023-02-28T01:27:03;22.93;;;15.10;;
5912;SDS011;2982;42.684;23.356;2023-02-28T01:29:28;22.37;;;14.80;;
5912;SDS011;2982;42.684;23.356;2023-02-28T01:31:53;21.53;;;14.37;;
5912;SDS011;2982;42.684;23.356;2023-02-28T01:34:19;24.97;;;14.87;;
5912;SDS011;2982;42.684;23.356;2023-02-28T01:36:44;22.90;;;14.17;;
5912;SDS011;2982;42.684;23.356;2023-02-28T01:39:09;25.00;;;15.67;;
5912;SDS011;2982;42.684;23.356;2023-02-28T01:41:35;24.67;;;15.40;;
5912;SDS011;2982;42.684;23.356;2023-02-28T01:44:02;22.87;;;15.60;;
5912;SDS011;2982;42.684;23.356;2023-02-28T01:46:30;24.53;;;15.17;;
5912;SDS011;2982;42.684;23.356;2023-02-28T01:48:58;25.67;;;16.00;;
5912;SDS011;2982;42.684;23.356;2023-02-28T01:51:37;24.00;;;16.10;;
5912;SDS011;2982;42.684;23.356;2023-02-28T01:54:15;27.30;;;16.17;;
5912;SDS011;2982;42.684;23.356;2023-02-28T01:56:47;23.93;;;15.17;;
5912;SDS011;2982;42.684;23.356;2023-02-28T01:59:27;23.77;;;14.30;;
5912;SDS011;2982;42.684;23.356;2023-02-28T02:01:58;27.33;;;15.13;;
5912;SDS011;2982;42.684;23.356;2023-02-28T02:04:23;25.83;;;14.83;;
5912;SDS011;2982;42.684;23.356;2023-02-28T02:06:52;22.80;;;15.27;;
5912;SDS011;2982;42.684;23.356;2023-02-28T02:09:18;27.43;;;15.70;;
5912;SDS011;2982;42.684;23.356;2023-02-28T02:11:43;25.90;;;15.87;;
5912;SDS011;2982;42.684;23.356;2023-02-28T02:14:12;23.70;;;15.07;;
5912;SDS011;2982;42.684;23.356;2023-02-28T02:17:13;26.07;;;16.60;;
5912;SDS011;2982;42.684;23.356;2023-02-28T02:30:19;23.83;;;15.37;;
5912;SDS011;2982;42.684;23.356;2023-02-28T02:38:50;29.17;;;16.47;;
5912;SDS011;2982;42.684;23.356;2023-02-28T02:41:27;30.90;;;17.07;;
5912;SDS011;2982;42.684;23.356;2023-02-28T02:44:07;26.27;;;16.90;;
5912;SDS011;2982;42.684;23.356;2023-02-28T02:46:39;25.77;;;16.43;;
5912;SDS011;2982;42.684;23.356;2023-02-28T02:49:09;33.13;;;18.80;;
5912;SDS011;2982;42.684;23.356;2023-02-28T02:51:40;27.80;;;16.77;;
5912;SDS011;2982;42.684;23.356;2023-02-28T02:54:08;31.60;;;18.57;;
5912;SDS011;2982;42.684;23.356;2023-02-28T02:56:38;36.27;;;20.17;;
5912;SDS011;2982;42.684;23.356;2023-02-28T02:59:07;33.70;;;20.37;;
5912;SDS011;2982;42.684;23.356;2023-02-28T03:01:34;38.27;;;21.93;;
5912;SDS011;2982;42.684;23.356;2023-02-28T03:04:04;39.07;;;21.67;;
5912;SDS011;2982;42.684;23.356;2023-02-28T03:06:33;36.30;;;20.50;;
5912;SDS011;2982;42.684;23.356;2023-02-28T03:08:59;39.17;;;20.90;;
5912;SDS011;2982;42.684;23.356;2023-02-28T03:11:25;33.80;;;19.53;;
5912;SDS011;2982;42.684;23.356;2023-02-28T03:25:15;44.37;;;22.07;;
5912;SDS011;2982;42.684;23.356;2023-02-28T03:27:49;35.40;;;20.13;;
5912;SDS011;2982;42.684;23.356;2023-02-28T03:33:08;39.00;;;21.53;;
5912;SDS011;2982;42.684;23.356;2023-02-28T03:35:39;38.30;;;22.07;;
5912;SDS011;2982;42.684;23.356;2023-02-28T03:38:12;46.83;;;22.93;;
5912;SDS011;2982;42.684;23.356;2023-02-28T03:40:43;43.90;;;24.23;;
5912;SDS011;2982;42.684;23.356;2023-02-28T03:43:14;57.97;;;27.67;;
5912;SDS011;2982;42.684;23.356;2023-02-28T03:45:46;58.60;;;27.40;;
5912;SDS011;2982;42.684;23.356;2023-02-28T03:48:17;58.93;;;25.60;;
5912;SDS011;2982;42.684;23.356;2023-02-28T03:50:51;59.23;;;25.33;;
5912;SDS011;2982;42.684;23.356;2023-02-28T03:53:22;55.07;;;26.77;;
5912;SDS011;2982;42.684;23.356;2023-02-28T03:56:08;57.13;;;25.93;;
5912;SDS011;2982;42.684;23.356;2023-02-28T04:01:35;56.50;;;26.33;;
5912;SDS011;2982;42.684;23.356;2023-02-28T04:04:00;55.17;;;25.43;;
5912;SDS011;2982;42.684;23.356;2023-02-28T04:06:26;62.92;;;26.52;;
5912;SDS011;2982;42.684;23.356;2023-02-28T04:08:52;50.53;;;24.30;;
5912;SDS011;2982;42.684;23.356;2023-02-28T04:13:54;41.90;;;22.10;;
5912;SDS011;2982;42.684;23.356;2023-02-28T04:16:19;39.10;;;19.43;;
5912;SDS011;2982;42.684;23.356;2023-02-28T04:18:45;42.77;;;21.00;;
5912;SDS011;2982;42.684;23.356;2023-02-28T04:21:10;45.57;;;21.57;;
5912;SDS011;2982;42.684;23.356;2023-02-28T04:23:36;58.70;;;20.43;;
5912;SDS011;2982;42.684;23.356;2023-02-28T04:26:01;53.33;;;22.93;;
5912;SDS011;2982;42.684;23.356;2023-02-28T04:28:27;69.63;;;22.60;;
5912;SDS011;2982;42.684;23.356;2023-02-28T04:30:59;68.80;;;22.23;;
5912;SDS011;2982;42.684;23.356;2023-02-28T04:33:27;45.60;;;20.57;;
5912;SDS011;2982;42.684;23.356;2023-02-28T04:36:03;84.63;;;23.53;;
5912;SDS011;2982;42.684;23.356;2023-02-28T04:38:33;43.93;;;20.93;;
5912;SDS011;2982;42.684;23.356;2023-02-28T04:41:00;51.67;;;22.03;;
5912;SDS011;2982;42.684;23.356;2023-02-28T04:43:26;54.30;;;22.47;;
5912;SDS011;2982;42.684;23.356;2023-02-28T04:45:52;64.10;;;23.70;;
5912;SDS011;2982;42.684;23.356;2023-02-28T04:48:18;95.47;;;22.87;;
5912;SDS011;2982;42.684;23.356;2023-02-28T04:50:43;81.57;;;24.63;;
5912;SDS011;2982;42.684;23.356;2023-02-28T04:53:09;76.67;;;23.90;;
5912;SDS011;2982;42.684;23.356;2023-02-28T04:55:34;74.13;;;23.67;;
5912;SDS011;2982;42.684;23.356;2023-02-28T04:57:59;59.50;;;22.07;;
5912;SDS011;2982;42.684;23.356;2023-02-28T05:00:25;70.73;;;22.67;;
5912;SDS011;2982;42.684;23.356;2023-02-28T05:02:50;107.17;;;23.73;;
5912;SDS011;2982;42.684;23.356;2023-02-28T05:05:15;114.00;;;24.37;;
5912;SDS011;2982;42.684;23.356;2023-02-28T05:07:40;56.60;;;21.77;;
5912;SDS011;2982;42.684;23.356;2023-02-28T05:10:06;61.27;;;24.17;;
5912;SDS011;2982;42.684;23.356;2023-02-28T05:12:31;49.70;;;21.83;;
5912;SDS011;2982;42.684;23.356;2023-02-28T05:14:57;57.83;;;22.83;;
5912;SDS011;2982;42.684;23.356;2023-02-28T05:19:57;61.37;;;23.57;;
5912;SDS011;2982;42.684;23.356;2023-02-28T05:22:22;54.87;;;24.97;;
5912;SDS011;2982;42.684;23.356;2023-02-28T05:24:48;43.00;;;22.50;;
5912;SDS011;2982;42.684;23.356;2023-02-28T05:27:13;45.30;;;22.27;;
5912;SDS011;2982;42.684;23.356;2023-02-28T05:29:41;47.43;;;23.97;;
5912;SDS011;2982;42.684;23.356;2023-02-28T05:32:10;48.90;;;25.33;;
5912;SDS011;2982;42.684;23.356;2023-02-28T05:34:40;49.10;;;23.63;;
5912;SDS011;2982;42.684;23.356;2023-02-28T05:37:07;53.20;;;24.63;;
5912;SDS011;2982;42.684;23.356;2023-02-28T05:39:37;48.00;;;24.37;;
5912;SDS011;2982;42.684;23.356;2023-02-28T05:42:02;47.27;;;24.50;;
5912;SDS011;2982;42.684;23.356;2023-02-28T05:44:28;52.77;;;24.90;;
5912;SDS011;2982;42.684;23.356;2023-02-28T05:46:53;50.17;;;23.27;;
5912;SDS011;2982;42.684;23.356;2023-02-28T05:49:19;41.60;;;22.37;;
5912;SDS011;2982;42.684;23.356;2023-02-28T05:51:44;46.00;;;24.60;;
5912;SDS011;2982;42.684;23.356;2023-02-28T05:54:09;51.03;;;27.70;;
5912;SDS011;2982;42.684;23.356;2023-02-28T05:56:35;55.90;;;26.77;;
5912;SDS011;2982;42.684;23.356;2023-02-28T05:59:00;61.07;;;29.53;;
5912;SDS011;2982;42.684;23.356;2023-02-28T06:01:33;64.57;;;28.92;;
5912;SDS011;2982;42.684;23.356;2023-02-28T06:04:00;56.97;;;28.23;;
5912;SDS011;2982;42.684;23.356;2023-02-28T06:06:26;67.33;;;27.33;;
5912;SDS011;2982;42.684;23.356;2023-02-28T06:08:52;53.87;;;27.10;;
5912;SDS011;2982;42.684;23.356;2023-02-28T06:11:17;53.07;;;26.77;;
5912;SDS011;2982;42.684;23.356;2023-02-28T06:13:43;59.30;;;29.83;;
5912;SDS011;2982;42.684;23.356;2023-02-28T06:16:09;59.93;;;29.47;;
5912;SDS011;2982;42.684;23.356;2023-02-28T06:18:35;58.70;;;29.40;;
5912;SDS011;2982;42.684;23.356;2023-02-28T06:21:01;60.73;;;30.63;;
5912;SDS011;2982;42.684;23.356;2023-02-28T06:23:26;68.77;;;31.30;;
5912;SDS011;2982;42.684;23.356;2023-02-28T06:25:51;64.33;;;31.30;;
5912;SDS011;2982;42.684;23.356;2023-02-28T06:28:17;77.70;;;33.00;;
5912;SDS011;2982;42.684;23.356;2023-02-28T06:30:42;72.93;;;32.27;;
5912;SDS011;2982;42.684;23.356;2023-02-28T06:33:10;72.47;;;33.07;;
5912;SDS011;2982;42.684;23.356;2023-02-28T06:35:54;75.20;;;34.53;;
5912;SDS011;2982;42.684;23.356;2023-02-28T06:38:19;74.93;;;33.37;;
5912;SDS011;2982;42.684;23.356;2023-02-28T06:40:45;82.63;;;33.23;;
5912;SDS011;2982;42.684;23.356;2023-02-28T06:43:18;83.20;;;34.63;;
5912;SDS011;2982;42.684;23.356;2023-02-28T06:45:43;78.23;;;36.00;;
5912;SDS011;2982;42.684;23.356;2023-02-28T06:48:09;82.17;;;34.63;;
5912;SDS011;2982;42.684;23.356;2023-02-28T06:50:34;70.83;;;34.30;;
5912;SDS011;2982;42.684;23.356;2023-02-28T06:52:59;67.47;;;31.93;;
5912;SDS011;2982;42.684;23.356;2023-02-28T06:55:25;65.20;;;30.63;;
5912;SDS011;2982;42.684;23.356;2023-02-28T06:57:50;63.43;;;30.53;;
5912;SDS011;2982;42.684;23.356;2023-02-28T07:00:15;63.20;;;31.13;;
5912;SDS011;2982;42.684;23.356;2023-02-28T07:02:41;48.37;;;27.33;;
5912;SDS011;2982;42.684;23.356;2023-02-28T07:05:06;40.17;;;23.53;;
5912;SDS011;2982;42.684;23.356;2023-02-28T07:07:32;46.37;;;25.67;;
5912;SDS011;2982;42.684;23.356;2023-02-28T07:09:57;43.73;;;25.30;;
5912;SDS011;2982;42.684;23.356;2023-02-28T07:12:23;55.40;;;32.10;;
5912;SDS011;2982;42.684;23.356;2023-02-28T07:14:48;44.97;;;26.97;;
5912;SDS011;2982;42.684;23.356;2023-02-28T07:17:13;47.20;;;26.60;;
5912;SDS011;2982;42.684;23.356;2023-02-28T07:19:39;47.43;;;26.87;;
5912;SDS011;2982;42.684;23.356;2023-02-28T07:22:04;52.53;;;27.97;;
5912;SDS011;2982;42.684;23.356;2023-02-28T07:24:30;45.20;;;26.63;;
5912;SDS011;2982;42.684;23.356;2023-02-28T07:26:55;46.47;;;26.50;;
5912;SDS011;2982;42.684;23.356;2023-02-28T07:29:21;49.63;;;27.65;;
5912;SDS011;2982;42.684;23.356;2023-02-28T07:31:46;34.07;;;22.10;;
5912;SDS011;2982;42.684;23.356;2023-02-28T07:34:12;36.93;;;22.20;;
5912;SDS011;2982;42.684;23.356;2023-02-28T07:36:40;35.67;;;21.20;;
5912;SDS011;2982;42.684;23.356;2023-02-28T07:39:05;33.90;;;20.83;;
5912;SDS011;2982;42.684;23.356;2023-02-28T07:41:31;39.97;;;22.63;;
5912;SDS011;2982;42.684;23.356;2023-02-28T07:43:56;35.55;;;21.15;;
5912;SDS011;2982;42.684;23.356;2023-02-28T07:46:21;36.93;;;21.63;;
5912;SDS011;2982;42.684;23.356;2023-02-28T07:48:46;34.75;;;21.38;;
5912;SDS011;2982;42.684;23.356;2023-02-28T07:51:12;33.50;;;21.67;;
5912;SDS011;2982;42.684;23.356;2023-02-28T07:53:37;34.70;;;21.88;;
5912;SDS011;2982;42.684;23.356;2023-02-28T07:56:03;35.90;;;23.58;;
5912;SDS011;2982;42.684;23.356;2023-02-28T07:58:29;39.78;;;24.25;;
5912;SDS011;2982;42.684;23.356;2023-02-28T08:00:55;36.83;;;22.02;;
5912;SDS011;2982;42.684;23.356;2023-02-28T08:03:21;36.55;;;24.13;;
5912;SDS011;2982;42.684;23.356;2023-02-28T08:05:48;34.50;;;22.20;;
5912;SDS011;2982;42.684;23.356;2023-02-28T08:08:14;37.75;;;25.27;;
5912;SDS011;2982;42.684;23.356;2023-02-28T08:10:40;37.50;;;25.13;;
5912;SDS011;2982;42.684;23.356;2023-02-28T08:13:06;38.45;;;25.27;;
5912;SDS011;2982;42.684;23.356;2023-02-28T08:15:32;34.63;;;25.15;;
5912;SDS011;2982;42.684;23.356;2023-02-28T08:17:57;36.78;;;25.55;;
5912;SDS011;2982;42.684;23.356;2023-02-28T08:20:23;34.88;;;24.20;;
5912;SDS011;2982;42.684;23.356;2023-02-28T08:22:49;32.25;;;23.05;;
5912;SDS011;2982;42.684;23.356;2023-02-28T08:25:15;35.80;;;24.42;;
5912;SDS011;2982;42.684;23.356;2023-02-28T08:27:41;38.83;;;23.75;;
5912;SDS011;2982;42.684;23.356;2023-02-28T08:30:06;35.95;;;24.17;;
5912;SDS011;2982;42.684;23.356;2023-02-28T08:32:33;32.45;;;23.17;;
5912;SDS011;2982;42.684;23.356;2023-02-28T08:34:58;34.80;;;23.88;;
5912;SDS011;2982;42.684;23.356;2023-02-28T08:37:24;29.48;;;22.38;;
5912;SDS011;2982;42.684;23.356;2023-02-28T08:39:50;32.58;;;22.02;;
5912;SDS011;2982;42.684;23.356;2023-02-28T08:42:15;33.05;;;22.20;;
5912;SDS011;2982;42.684;23.356;2023-02-28T08:44:40;33.92;;;22.17;;
5912;SDS011;2982;42.684;23.356;2023-02-28T08:47:06;30.05;;;18.73;;
5912;SDS011;2982;42.684;23.356;2023-02-28T08:49:31;27.05;;;16.92;;
5912;SDS011;2982;42.684;23.356;2023-02-28T08:51:56;25.60;;;16.00;;
5912;SDS011;2982;42.684;23.356;2023-02-28T08:54:22;37.50;;;17.55;;
5912;SDS011;2982;42.684;23.356;2023-02-28T08:56:47;30.73;;;16.27;;
5912;SDS011;2982;42.684;23.356;2023-02-28T08:59:13;29.38;;;16.05;;
5912;SDS011;2982;42.684;23.356;2023-02-28T09:01:38;23.92;;;14.30;;
5912;SDS011;2982;42.684;23.356;2023-02-28T09:04:04;25.23;;;15.32;;
5912;SDS011;2982;42.684;23.356;2023-02-28T09:06:29;27.73;;;15.85;;
5912;SDS011;2982;42.684;23.356;2023-02-28T09:08:58;28.33;;;15.50;;
5912;SDS011;2982;42.684;23.356;2023-02-28T09:11:23;28.30;;;14.70;;
5912;SDS011;2982;42.684;23.356;2023-02-28T09:13:49;21.63;;;15.52;;
5912;SDS011;2982;42.684;23.356;2023-02-28T09:16:14;29.10;;;15.00;;
5912;SDS011;2982;42.684;23.356;2023-02-28T09:18:41;25.85;;;14.77;;
5912;SDS011;2982;42.684;23.356;2023-02-28T09:21:08;22.98;;;14.68;;
5912;SDS011;2982;42.684;23.356;2023-02-28T09:23:35;25.23;;;14.95;;
5912;SDS011;2982;42.684;23.356;2023-02-28T09:26:01;24.45;;;14.27;;
5912;SDS011;2982;42.684;23.356;2023-02-28T09:28:26;25.08;;;15.25;;
5912;SDS011;2982;42.684;23.356;2023-02-28T09:30:54;24.77;;;15.02;;
5912;SDS011;2982;42.684;23.356;2023-02-28T09:33:20;20.33;;;14.07;;
5912;SDS011;2982;42.684;23.356;2023-02-28T09:35:46;25.83;;;14.15;;
5912;SDS011;2982;42.684;23.356;2023-02-28T09:38:16;22.42;;;13.68;;
5912;SDS011;2982;42.684;23.356;2023-02-28T09:40:56;21.85;;;14.70;;
5912;SDS011;2982;42.684;23.356;2023-02-28T09:43:24;22.52;;;15.30;;
5912;SDS011;2982;42.684;23.356;2023-02-28T09:46:05;23.65;;;16.27;;
5912;SDS011;2982;42.684;23.356;2023-02-28T09:48:34;20.50;;;14.98;;
5912;SDS011;2982;42.684;23.356;2023-02-28T09:51:04;19.35;;;11.25;;
5912;SDS011;2982;42.684;23.356;2023-02-28T09:53:37;22.42;;;12.77;;
5912;SDS011;2982;42.684;23.356;2023-02-28T09:56:25;24.20;;;13.38;;
5912;SDS011;2982;42.684;23.356;2023-02-28T09:58:53;19.85;;;11.45;;
5912;SDS011;2982;42.684;23.356;2023-02-28T10:01:41;22.45;;;14.25;;
5912;SDS011;2982;42.684;23.356;2023-02-28T10:07:00;17.00;;;11.13;;
5912;SDS011;2982;42.684;23.356;2023-02-28T10:09:31;20.13;;;12.23;;
5912;SDS011;2982;42.684;23.356;2023-02-28T10:12:05;21.95;;;11.82;;
5912;SDS011;2982;42.684;23.356;2023-02-28T10:14:32;27.02;;;10.95;;
5912;SDS011;2982;42.684;23.356;2023-02-28T10:17:01;15.10;;;12.23;;
5912;SDS011;2982;42.684;23.356;2023-02-28T10:25:15;20.05;;;11.93;;
5912;SDS011;2982;42.684;23.356;2023-02-28T10:27:43;15.60;;;9.18;;
5912;SDS011;2982;42.684;23.356;2023-02-28T10:30:09;18.00;;;9.55;;
5912;SDS011;2982;42.684;23.356;2023-02-28T10:32:35;20.52;;;10.77;;
5912;SDS011;2982;42.684;23.356;2023-02-28T10:35:10;19.40;;;9.32;;
5912;SDS011;2982;42.684;23.356;2023-02-28T10:37:42;18.77;;;11.65;;
5912;SDS011;2982;42.684;23.356;2023-02-28T10:42:45;17.10;;;10.02;;
5912;SDS011;2982;42.684;23.356;2023-02-28T10:45:22;15.95;;;10.05;;
5912;SDS011;2982;42.684;23.356;2023-02-28T10:50:29;22.67;;;10.52;;
5912;SDS011;2982;42.684;23.356;2023-02-28T10:56:00;19.23;;;10.48;;
5912;SDS011;2982;42.684;23.356;2023-02-28T11:01:45;18.73;;;10.35;;
5912;SDS011;2982;42.684;23.356;2023-02-28T11:06:59;15.50;;;9.65;;
5912;SDS011;2982;42.684;23.356;2023-02-28T11:09:30;15.80;;;8.98;;
5912;SDS011;2982;42.684;23.356;2023-02-28T11:11:57;19.73;;;11.05;;
5912;SDS011;2982;42.684;23.356;2023-02-28T11:14:26;22.38;;;11.20;;
5912;SDS011;2982;42.684;23.356;2023-02-28T11:16:53;22.95;;;9.95;;
5912;SDS011;2982;42.684;23.356;2023-02-28T11:19:25;15.35;;;11.05;;
5912;SDS011;2982;42.684;23.356;2023-02-28T11:21:56;17.25;;;10.65;;
5912;SDS011;2982;42.684;23.356;2023-02-28T11:24:35;15.13;;;10.05;;
5912;SDS011;2982;42.684;23.356;2023-02-28T11:27:02;18.92;;;11.93;;
5912;SDS011;2982;42.684;23.356;2023-02-28T11:29:31;20.77;;;10.05;;
5912;SDS011;2982;42.684;23.356;2023-02-28T11:34:28;19.00;;;10.95;;
5912;SDS011;2982;42.684;23.356;2023-02-28T11:36:54;17.05;;;9.32;;
5912;SDS011;2982;42.684;23.356;2023-02-28T11:39:21;23.48;;;10.30;;
5912;SDS011;2982;42.684;23.356;2023-02-28T11:49:49;15.38;;;10.93;;
5912;SDS011;2982;42.684;23.356;2023-02-28T11:52:37;17.50;;;8.57;;
5912;SDS011;2982;42.684;23.356;2023-02-28T12:04:25;15.27;;;9.75;;
5912;SDS011;2982;42.684;23.356;2023-02-28T12:07:02;20.05;;;11.25;;
5912;SDS011;2982;42.684;23.356;2023-02-28T12:09:50;18.05;;;11.02;;
5912;SDS011;2982;42.684;23.356;2023-02-28T12:12:42;23.00;;;11.20;;
5912;SDS011;2982;42.684;23.356;2023-02-28T12:18:04;22.23;;;11.13;;
5912;SDS011;2982;42.684;23.356;2023-02-28T12:28:54;19.33;;;10.95;;
5912;SDS011;2982;42.684;23.356;2023-02-28T12:31:28;25.67;;;12.20;;
5912;SDS011;2982;42.684;23.356;2023-02-28T12:33:57;18.88;;;10.95;;
5912;SDS011;2982;42.684;23.356;2023-02-28T12:37:51;23.77;;;11.80;;
5912;SDS011;2982;42.684;23.356;2023-02-28T12:40:23;18.63;;;10.35;;
5912;SDS011;2982;42.684;23.356;2023-02-28T12:42:56;17.50;;;11.20;;
5912;SDS011;2982;42.684;23.356;2023-02-28T12:45:38;24.83;;;10.48;;
5912;SDS011;2982;42.684;23.356;2023-02-28T12:48:08;17.75;;;10.27;;
5912;SDS011;2982;42.684;23.356;2023-02-28T12:50:38;17.45;;;10.90;;
5912;SDS011;2982;42.684;23.356;2023-02-28T13:01:21;13.18;;;8.98;;
5912;SDS011;2982;42.684;23.356;2023-02-28T13:09:56;24.88;;;11.80;;
5912;SDS011;2982;42.684;23.356;2023-02-28T13:12:23;21.08;;;11.70;;
5912;SDS011;2982;42.684;23.356;2023-02-28T13:14:49;18.95;;;10.48;;
5912;SDS011;2982;42.684;23.356;2023-02-28T13:17:24;21.45;;;9.68;;
5912;SDS011;2982;42.684;23.356;2023-02-28T13:25:50;27.60;;;12.95;;
5912;SDS011;2982;42.684;23.356;2023-02-28T13:27:58;19.45;;;11.63;;
5912;SDS011;2982;42.684;23.356;2023-02-28T13:33:28;17.90;;;12.05;;
5912;SDS011;2982;42.684;23.356;2023-02-28T13:36:09;23.27;;;10.70;;
5912;SDS011;2982;42.684;23.356;2023-02-28T13:51:47;14.15;;;8.60;;
5912;SDS011;2982;42.684;23.356;2023-02-28T14:05:05;21.75;;;9.85;;
5912;SDS011;2982;42.684;23.356;2023-02-28T14:07:39;15.38;;;9.38;;
5912;SDS011;2982;42.684;23.356;2023-02-28T14:15:47;17.77;;;10.07;;
5912;SDS011;2982;42.684;23.356;2023-02-28T14:18:22;15.77;;;10.05;;
5912;SDS011;2982;42.684;23.356;2023-02-28T14:26:57;14.40;;;9.65;;
5912;SDS011;2982;42.684;23.356;2023-02-28T14:29:39;18.85;;;10.35;;
5912;SDS011;2982;42.684;23.356;2023-02-28T14:35:09;16.65;;;8.45;;
5912;SDS011;2982;42.684;23.356;2023-02-28T14:37:38;28.35;;;10.32;;
5912;SDS011;2982;42.684;23.356;2023-02-28T14:40:16;15.75;;;9.95;;
5912;SDS011;2982;42.684;23.356;2023-02-28T14:42:48;25.15;;;9.65;;
5912;SDS011;2982;42.684;23.356;2023-02-28T14:45:20;16.20;;;8.98;;
5912;SDS011;2982;42.684;23.356;2023-02-28T14:47:47;28.45;;;10.68;;
5912;SDS011;2982;42.684;23.356;2023-02-28T14:50:17;15.70;;;9.88;;
5912;SDS011;2982;42.684;23.356;2023-02-28T14:52:50;14.60;;;8.85;;
5912;SDS011;2982;42.684;23.356;2023-02-28T14:55:18;21.45;;;9.80;;
5912;SDS011;2982;42.684;23.356;2023-02-28T14:57:56;17.77;;;10.15;;
5912;SDS011;2982;42.684;23.356;2023-02-28T15:00:25;18.80;;;8.75;;
5912;SDS011;2982;42.684;23.356;2023-02-28T15:03:11;15.32;;;7.68;;
5912;SDS011;2982;42.684;23.356;2023-02-28T15:05:52;19.05;;;8.48;;
5912;SDS011;2982;42.684;23.356;2023-02-28T15:08:22;16.77;;;8.20;;
5912;SDS011;2982;42.684;23.356;2023-02-28T15:10:53;13.98;;;8.45;;
5912;SDS011;2982;42.684;23.356;2023-02-28T15:13:21;14.85;;;7.72;;
5912;SDS011;2982;42.684;23.356;2023-02-28T15:18:40;22.27;;;9.68;;
5912;SDS011;2982;42.684;23.356;2023-02-28T15:21:26;16.38;;;7.22;;
5912;SDS011;2982;42.684;23.356;2023-02-28T15:23:55;13.35;;;8.02;;
5912;SDS011;2982;42.684;23.356;2023-02-28T15:26:25;17.45;;;9.10;;
5912;SDS011;2982;42.684;23.356;2023-02-28T15:28:58;9.77;;;7.13;;
5912;SDS011;2982;42.684;23.356;2023-02-28T15:31:30;11.32;;;8.02;;
5912;SDS011;2982;42.684;23.356;2023-02-28T15:34:02;9.65;;;7.07;;
5912;SDS011;2982;42.684;23.356;2023-02-28T15:36:29;10.93;;;7.75;;
5912;SDS011;2982;42.684;23.356;2023-02-28T15:38:57;11.90;;;7.57;;
5912;SDS011;2982;42.684;23.356;2023-02-28T15:41:27;9.65;;;6.85;;
5912;SDS011;2982;42.684;23.356;2023-02-28T15:44:17;12.43;;;8.20;;
5912;SDS011;2982;42.684;23.356;2023-02-28T15:46:44;12.90;;;7.47;;
5912;SDS011;2982;42.684;23.356;2023-02-28T15:49:19;19.77;;;6.82;;
5912;SDS011;2982;42.684;23.356;2023-02-28T15:51:48;9.88;;;8.10;;
5912;SDS011;2982;42.684;23.356;2023-02-28T15:54:20;15.55;;;7.28;;
5912;SDS011;2982;42.684;23.356;2023-02-28T15:56:51;12.82;;;7.15;;
5912;SDS011;2982;42.684;23.356;2023-02-28T15:59:20;17.00;;;8.40;;
5912;SDS011;2982;42.684;23.356;2023-02-28T16:02:01;11.27;;;7.90;;
5912;SDS011;2982;42.684;23.356;2023-02-28T16:04:56;11.05;;;6.85;;
5912;SDS011;2982;42.684;23.356;2023-02-28T16:07:31;9.32;;;7.57;;
5912;SDS011;2982;42.684;23.356;2023-02-28T16:09:57;11.00;;;8.05;;
5912;SDS011;2982;42.684;23.356;2023-02-28T16:12:27;8.57;;;7.05;;
5912;SDS011;2982;42.684;23.356;2023-02-28T16:14:54;10.45;;;7.80;;
5912;SDS011;2982;42.684;23.356;2023-02-28T16:17:26;10.32;;;7.88;;
5912;SDS011;2982;42.684;23.356;2023-02-28T16:19:54;14.85;;;7.60;;
5912;SDS011;2982;42.684;23.356;2023-02-28T16:22:20;9.00;;;7.15;;
5912;SDS011;2982;42.684;23.356;2023-02-28T16:24:46;14.88;;;6.75;;
5912;SDS011;2982;42.684;23.356;2023-02-28T16:27:20;8.43;;;6.25;;
5912;SDS011;2982;42.684;23.356;2023-02-28T16:29:51;7.03;;;6.32;;
5912;SDS011;2982;42.684;23.356;2023-02-28T16:32:18;5.55;;;5.13;;
5912;SDS011;2982;42.684;23.356;2023-02-28T16:34:43;16.55;;;7.47;;
5912;SDS011;2982;42.684;23.356;2023-02-28T16:37:13;8.65;;;6.30;;
5912;SDS011;2982;42.684;23.356;2023-02-28T16:39:41;8.38;;;5.35;;
5912;SDS011;2982;42.684;23.356;2023-02-28T16:42:14;8.60;;;5.63;;
5912;SDS011;2982;42.684;23.356;2023-02-28T16:44:43;7.63;;;6.13;;
5912;SDS011;2982;42.684;23.356;2023-02-28T16:47:09;8.00;;;5.28;;
5912;SDS011;2982;42.684;23.356;2023-02-28T16:49:36;9.95;;;5.10;;
5912;SDS011;2982;42.684;23.356;2023-02-28T16:52:01;8.23;;;4.55;;
5912;SDS011;2982;42.684;23.356;2023-02-28T16:54:26;8.33;;;5.43;;
5912;SDS011;2982;42.684;23.356;2023-02-28T16:56:51;7.43;;;5.90;;
5912;SDS011;2982;42.684;23.356;2023-02-28T16:59:19;7.75;;;5.03;;
5912;SDS011;2982;42.684;23.356;2023-02-28T17:01:47;6.20;;;5.60;;
5912;SDS011;2982;42.684;23.356;2023-02-28T17:04:12;7.97;;;5.17;;
5912;SDS011;2982;42.684;23.356;2023-02-28T17:06:38;6.53;;;5.00;;
5912;SDS011;2982;42.684;23.356;2023-02-28T17:09:03;7.37;;;5.87;;
5912;SDS011;2982;42.684;23.356;2023-02-28T17:11:29;6.60;;;5.93;;
5912;SDS011;2982;42.684;23.356;2023-02-28T17:13:54;12.43;;;6.33;;
5912;SDS011;2982;42.684;23.356;2023-02-28T17:16:28;5.97;;;5.40;;
5912;SDS011;2982;42.684;23.356;2023-02-28T17:18:56;6.43;;;5.83;;
5912;SDS011;2982;42.684;23.356;2023-02-28T17:21:23;7.93;;;5.37;;
5912;SDS011;2982;42.684;23.356;2023-02-28T17:23:48;6.27;;;4.43;;
5912;SDS011;2982;42.684;23.356;2023-02-28T17:26:14;5.20;;;4.70;;